Time;durP1;ratioP1;P1;durP2;ratioP2;P2;SDS_P1;SDS_P2;PMS_P1;PMS_P2;Temp;Humidity;BMP_temperature;BMP_pressure;BME280_temperature;BME280_humidity;BME280_pressure;Samples;Min_cycle;Max_cycle;Signal;HPM_P1;HPM_P2
2021/06/08 00:00:35;;;;;;;9.75;5.00;;;;;;;14.58;89.63;96557.84;5092678;28;20122;-70
2021/06/08 00:03:02;;;;;;;11.73;5.32;;;;;;;14.76;89.44;96552.16;5094932;28;20048;-69
2021/06/08 00:05:29;;;;;;;9.73;5.15;;;;;;;14.70;90.46;96551.34;5094628;28;20123;-70
2021/06/08 00:07:56;;;;;;;9.40;4.50;;;;;;;14.68;89.07;96553.41;5076218;28;20123;-69
2021/06/08 00:10:22;;;;;;;10.32;4.47;;;;;;;14.61;89.26;96552.84;5094601;28;20441;-69
2021/06/08 00:12:48;;;;;;;8.90;4.28;;;;;;;14.62;89.48;96554.44;5094361;28;20047;-69
2021/06/08 00:15:14;;;;;;;9.95;5.13;;;;;;;14.61;90.18;96560.00;5094587;28;20036;-69
2021/06/08 00:17:40;;;;;;;9.15;4.20;;;;;;;14.54;89.80;96549.63;5094805;28;20060;-69
2021/06/08 00:20:07;;;;;;;9.60;4.63;;;;;;;14.51;90.71;96547.47;5095178;28;20115;-69
2021/06/08 00:22:34;;;;;;;10.32;4.45;;;;;;;14.49;90.77;96549.56;5094493;28;20054;-69
2021/06/08 00:25:00;;;;;;;12.60;4.80;;;;;;;14.62;89.49;96540.41;5108982;28;20075;-70
2021/06/08 00:27:26;;;;;;;10.25;4.63;;;;;;;14.59;89.46;96546.22;5101946;28;20040;-68
2021/06/08 00:29:52;;;;;;;8.32;3.90;;;;;;;14.73;87.96;96543.91;5095857;28;20431;-69
2021/06/08 00:32:18;;;;;;;8.63;4.50;;;;;;;14.69;88.68;96541.00;5076793;28;20062;-69
2021/06/08 00:34:46;;;;;;;10.73;4.97;;;;;;;14.59;89.31;96540.94;5076167;28;20044;-69
2021/06/08 00:37:14;;;;;;;9.75;4.93;;;;;;;14.60;88.34;96545.16;5094600;28;20442;-69
2021/06/08 00:39:43;;;;;;;10.68;5.20;;;;;;;14.77;88.12;96542.38;5094117;28;20040;-69
2021/06/08 00:42:09;;;;;;;14.70;5.82;;;;;;;14.61;87.08;96542.25;5101670;22;20361;-63
2021/06/08 00:44:35;;;;;;;10.57;5.85;;;;;;;14.65;87.21;96537.25;5074433;28;20048;-63
2021/06/08 00:47:00;;;;;;;12.20;5.55;;;;;;;14.75;87.52;96534.69;5073713;28;20071;-63
2021/06/08 00:49:26;;;;;;;11.50;5.93;;;;;;;14.74;86.73;96537.56;5074113;28;20036;-63
2021/06/08 00:51:52;;;;;;;11.80;6.30;;;;;;;14.78;87.07;96534.16;5074845;28;20040;-64
2021/06/08 00:54:18;;;;;;;12.43;6.47;;;;;;;14.77;86.93;96524.63;5078842;28;20036;-62
2021/06/08 00:56:46;;;;;;;14.57;7.50;;;;;;;14.81;86.68;96525.72;5094694;28;20047;-64
2021/06/08 00:59:12;;;;;;;13.90;7.45;;;;;;;14.67;87.27;96524.56;5103428;28;20177;-63
2021/06/08 01:01:38;;;;;;;15.93;7.45;;;;;;;14.85;87.63;96529.47;5095471;28;20115;-63
2021/06/08 01:04:05;;;;;;;16.65;8.07;;;;;;;14.73;87.61;96526.19;5094083;28;20131;-63
2021/06/08 01:06:31;;;;;;;14.65;7.80;;;;;;;14.73;88.11;96518.25;5094398;28;20551;-65
2021/06/08 01:08:57;;;;;;;15.65;8.32;;;;;;;14.69;89.04;96531.22;5094770;28;20384;-64
2021/06/08 01:11:22;;;;;;;16.40;8.45;;;;;;;14.63;89.35;96526.09;5094313;28;20078;-64
2021/06/08 01:13:49;;;;;;;15.23;8.32;;;;;;;14.58;89.50;96520.78;5094871;28;20147;-65
2021/06/08 01:16:15;;;;;;;18.05;8.27;;;;;;;14.53;90.40;96516.25;5094407;28;20048;-65
2021/06/08 01:18:41;;;;;;;16.20;8.43;;;;;;;14.54;89.92;96522.34;5085762;28;20036;-65
2021/06/08 01:21:09;;;;;;;16.38;8.15;;;;;;;14.54;89.98;96517.06;5055565;28;20524;-65
2021/06/08 01:23:37;;;;;;;14.35;7.45;;;;;;;14.44;90.30;96521.19;5073948;28;20459;-64
2021/06/08 01:26:03;;;;;;;15.20;8.37;;;;;;;14.39;90.12;96525.63;5073752;28;20119;-64
2021/06/08 01:28:30;;;;;;;16.95;8.07;;;;;;;14.38;90.51;96514.25;5073513;28;20127;-64
2021/06/08 01:30:57;;;;;;;16.08;8.45;;;;;;;14.39;90.43;96515.03;5072976;28;20040;-64
2021/06/08 01:33:25;;;;;;;17.77;8.95;;;;;;;14.29;91.27;96513.09;5073445;28;20093;-64
2021/06/08 01:35:52;;;;;;;;;;;;;;;14.27;91.21;96522.34;5074022;28;20240;-64
2021/06/08 01:38:22;;;;;;;17.65;9.07;;;;;;;14.22;91.30;96519.66;5073190;28;20391;-64
2021/06/08 01:40:51;;;;;;;20.05;9.02;;;;;;;14.25;91.80;96524.44;5073233;28;20040;-65
2021/06/08 01:43:19;;;;;;;19.05;9.65;;;;;;;14.20;91.85;96522.53;5054793;28;20052;-64
2021/06/08 01:45:49;;;;;;;20.45;10.55;;;;;;;14.14;92.18;96523.53;5072773;28;20115;-64
2021/06/08 01:48:15;;;;;;;19.88;10.43;;;;;;;14.15;92.17;96528.59;5072579;28;20037;-64
2021/06/08 01:50:42;;;;;;;22.15;11.10;;;;;;;14.29;92.31;96521.03;5071874;28;20117;-64
2021/06/08 01:53:12;;;;;;;19.50;9.82;;;;;;;14.28;91.59;96529.25;5073127;28;20037;-64
2021/06/08 01:55:43;;;;;;;20.25;10.38;;;;;;;14.23;91.75;96529.19;5073026;28;20048;-64
2021/06/08 01:58:14;;;;;;;18.42;9.88;;;;;;;14.36;91.58;96521.63;5073440;28;20036;-63
2021/06/08 02:00:47;;;;;;;20.10;10.65;;;;;;;14.33;91.38;96524.78;5072410;28;20044;-63
2021/06/08 02:03:17;;;;;;;18.77;10.05;;;;;;;14.34;91.48;96526.38;5054683;28;20063;-64
2021/06/08 02:05:49;;;;;;;21.08;10.63;;;;;;;14.35;91.42;96522.69;5055123;28;20072;-64
2021/06/08 02:08:27;;;;;;;22.27;10.60;;;;;;;14.34;91.72;96526.38;5072909;28;20121;-64
2021/06/08 02:10:57;;;;;;;22.90;10.98;;;;;;;14.35;91.66;96525.31;5072937;28;20106;-63
2021/06/08 02:13:31;;;;;;;20.67;11.05;;;;;;;14.42;91.19;96525.94;5055283;28;20119;-64
2021/06/08 02:16:02;;;;;;;22.10;11.18;;;;;;;14.45;91.38;96533.34;5072946;28;20033;-64
2021/06/08 02:18:29;;;;;;;26.23;12.00;;;;;;;14.36;91.60;96526.91;5072891;28;20381;-64
2021/06/08 02:20:58;;;;;;;22.80;11.45;;;;;;;14.40;91.68;96533.31;5071858;28;20439;-63
2021/06/08 02:23:27;;;;;;;24.63;12.15;;;;;;;14.40;91.65;96537.81;5072205;28;20048;-65
2021/06/08 02:25:55;;;;;;;26.05;12.38;;;;;;;14.32;91.95;96539.06;5072873;28;20115;-66
2021/06/08 02:28:26;;;;;;;28.58;13.38;;;;;;;14.28;92.28;96537.19;5072797;28;20128;-65
2021/06/08 02:30:54;;;;;;;28.27;13.65;;;;;;;14.27;92.17;96538.22;5072175;28;20120;-65
2021/06/08 02:33:21;;;;;;;29.95;13.77;;;;;;;14.30;92.29;96548.28;5072172;28;20044;-65
2021/06/08 02:35:47;;;;;;;30.35;14.73;;;;;;;14.22;92.68;96544.28;5072015;28;20036;-65
2021/06/08 02:38:17;;;;;;;29.77;14.25;;;;;;;14.25;92.39;96546.41;5071889;28;20051;-65
2021/06/08 02:40:43;;;;;;;32.50;15.45;;;;;;;14.34;92.58;96539.63;5071593;28;20036;-67
2021/06/08 02:43:11;;;;;;;30.95;15.57;;;;;;;14.36;91.96;96540.16;5072895;28;20075;-66
2021/06/08 02:45:39;;;;;;;30.33;15.32;;;;;;;14.27;92.44;96539.03;5072420;28;20132;-66
2021/06/08 02:48:05;;;;;;;35.53;16.48;;;;;;;14.29;92.65;96541.41;5072038;28;20047;-66
2021/06/08 02:50:32;;;;;;;31.73;14.93;;;;;;;14.27;92.65;96532.94;5070307;28;20534;-65
2021/06/08 02:52:58;;;;;;;31.25;15.38;;;;;;;14.30;92.72;96535.88;5072230;28;20471;-64
2021/06/08 02:55:26;;;;;;;31.02;14.60;;;;;;;14.33;92.59;96538.03;5072589;28;20044;-64
2021/06/08 02:57:52;;;;;;;;;;;;;;;14.32;92.25;96544.38;5073390;28;20032;-64
2021/06/08 03:00:20;;;;;;;33.10;15.82;;;;;;;14.32;92.77;96541.72;5072603;28;20011;-64
2021/06/08 03:02:47;;;;;;;;;;;;;;;14.36;92.42;96542.00;5073534;28;20106;-65
2021/06/08 03:05:20;;;;;;;38.93;17.77;;;;;;;14.30;92.78;96549.09;5076869;28;20399;-65
2021/06/08 03:07:48;;;;;;;35.60;16.40;;;;;;;14.38;92.77;96546.00;5076626;28;20357;-65
2021/06/08 03:10:17;;;;;;;42.08;18.55;;;;;;;14.32;92.54;96551.50;5076329;28;20116;-65
2021/06/08 03:12:46;;;;;;;43.80;19.20;;;;;;;14.28;92.74;96553.84;5076390;28;20453;-64
2021/06/08 03:15:13;;;;;;;42.47;20.83;;;;;;;14.28;93.05;96556.50;5076205;28;20063;-64
2021/06/08 03:17:44;;;;;;;47.53;20.83;;;;;;;14.24;93.43;96551.94;5071026;28;20045;-64
2021/06/08 03:20:17;;;;;;;45.58;19.58;;;;;;;14.25;93.10;96550.91;5070957;28;20052;-65
2021/06/08 03:22:47;;;;;;;51.08;21.15;;;;;;;14.19;93.54;96552.69;5076266;28;20062;-64
2021/06/08 03:25:14;;;;;;;45.60;19.73;;;;;;;14.16;93.35;96553.22;5076203;28;20043;-64
2021/06/08 03:27:41;;;;;;;45.85;20.40;;;;;;;14.26;93.47;96558.59;5076153;28;20120;-64
2021/06/08 03:30:08;;;;;;;45.55;20.77;;;;;;;14.25;93.38;96551.69;5075995;28;20040;-65
2021/06/08 03:32:36;;;;;;;51.13;21.35;;;;;;;14.30;93.52;96557.03;5076584;28;20040;-65
2021/06/08 03:35:06;;;;;;;45.95;20.08;;;;;;;14.27;93.64;96557.56;5076342;28;20048;-65
2021/06/08 03:37:35;;;;;;;43.17;19.52;;;;;;;14.28;93.48;96567.09;5078175;28;20036;-65
2021/06/08 03:40:04;;;;;;;48.78;20.27;;;;;;;14.34;93.34;96565.28;5078580;28;20070;-65
2021/06/08 03:42:30;;;;;;;47.05;20.70;;;;;;;14.34;93.68;96571.38;5078220;28;20444;-65
2021/06/08 03:44:55;;;;;;;49.35;21.45;;;;;;;14.37;93.46;96562.94;5075853;28;20500;-66
2021/06/08 03:47:21;;;;;;;49.65;20.95;;;;;;;14.38;93.43;96561.88;5075338;28;20098;-66
2021/06/08 03:49:47;;;;;;;46.58;20.45;;;;;;;14.41;93.52;96566.66;5056975;28;20044;-66
2021/06/08 03:52:17;;;;;;;47.67;20.52;;;;;;;14.51;93.14;96566.00;5077088;28;20088;-67
2021/06/08 03:54:43;;;;;;;48.22;21.77;;;;;;;14.48;93.04;96565.72;5075629;28;20064;-67
2021/06/08 03:57:09;;;;;;;44.42;20.05;;;;;;;14.57;92.67;96569.47;5074931;28;20384;-67
2021/06/08 03:59:36;;;;;;;44.92;21.38;;;;;;;14.53;92.72;96568.38;5075005;28;20124;-67
2021/06/08 04:02:03;;;;;;;50.65;20.77;;;;;;;14.50;92.55;96574.19;5075495;28;20048;-67
2021/06/08 04:04:31;;;;;;;44.05;20.60;;;;;;;14.52;92.57;96566.78;5057269;28;20060;-67
2021/06/08 04:06:59;;;;;;;43.55;19.95;;;;;;;14.55;92.43;96571.59;5075096;28;20052;-67
2021/06/08 04:09:26;;;;;;;45.25;20.27;;;;;;;14.58;92.75;96571.06;5075047;28;20545;-67
2021/06/08 04:11:52;;;;;;;42.53;20.03;;;;;;;14.65;92.71;96572.47;5075078;28;20193;-67
2021/06/08 04:14:19;;;;;;;42.13;20.38;;;;;;;14.72;92.11;96574.09;5074826;28;20055;-68
2021/06/08 04:16:46;;;;;;;40.20;18.85;;;;;;;14.74;92.04;96575.44;5075162;28;20036;-67
2021/06/08 04:19:15;;;;;;;42.80;20.55;;;;;;;14.79;92.03;96578.13;5074464;28;20128;-66
2021/06/08 04:21:42;;;;;;;42.40;20.58;;;;;;;14.88;92.15;96581.13;5074313;28;20526;-67
2021/06/08 04:24:08;;;;;;;41.22;19.35;;;;;;;14.97;91.55;96574.31;5074938;28;20036;-66
2021/06/08 04:26:36;;;;;;;41.70;19.52;;;;;;;15.01;91.59;96572.72;5075411;28;20090;-67
2021/06/08 04:29:02;;;;;;;42.15;18.98;;;;;;;15.20;91.30;96586.38;5075281;28;20515;-66
2021/06/08 04:31:28;;;;;;;38.72;19.05;;;;;;;15.10;90.26;96584.44;5075055;28;20040;-65
2021/06/08 04:33:56;;;;;;;34.95;17.50;;;;;;;15.21;90.42;96590.63;5074908;28;20055;-64
2021/06/08 04:36:24;;;;;;;36.20;18.13;;;;;;;15.15;90.39;96586.34;5074564;28;20407;-66
2021/06/08 04:38:51;;;;;;;32.53;17.02;;;;;;;15.26;89.62;96587.22;5057050;28;20123;-64
2021/06/08 04:41:18;;;;;;;33.78;15.85;;;;;;;15.23;89.92;96588.53;5075186;28;20090;-65
2021/06/08 04:43:45;;;;;;;31.33;15.82;;;;;;;15.15;89.86;96586.34;5057325;28;20127;-64
2021/06/08 04:46:12;;;;;;;29.23;15.48;;;;;;;15.18;89.82;96586.66;5075166;28;20123;-63
2021/06/08 04:48:39;;;;;;;26.70;14.60;;;;;;;15.26;89.37;96590.66;5072641;28;20064;-63
2021/06/08 04:51:05;;;;;;;29.95;14.88;;;;;;;15.19;89.32;96592.75;5074001;28;20048;-63
2021/06/08 04:53:31;;;;;;;30.00;15.15;;;;;;;15.19;89.33;96595.38;5075121;28;20115;-65
2021/06/08 04:55:57;;;;;;;29.27;14.65;;;;;;;15.19;88.83;96590.09;5074377;28;20079;-65
2021/06/08 04:58:23;;;;;;;28.02;14.40;;;;;;;15.23;89.41;96599.13;5074859;28;20032;-64
2021/06/08 05:00:56;;;;;;;30.65;14.93;;;;;;;15.33;88.83;96590.41;5074396;28;20047;-64
2021/06/08 05:03:25;;;;;;;29.55;14.38;;;;;;;15.30;89.39;96591.75;5075057;28;20135;-65
2021/06/08 05:05:54;;;;;;;24.42;13.65;;;;;;;15.39;89.49;96592.03;5074808;28;20090;-65
2021/06/08 05:08:22;;;;;;;30.27;14.40;;;;;;;15.46;88.99;96595.28;5074109;28;20418;-65
2021/06/08 05:10:54;;;;;;;29.13;14.30;;;;;;;15.47;88.64;96600.31;5056379;28;20074;-65
2021/06/08 05:13:21;;;;;;;23.70;13.63;;;;;;;15.57;89.06;96598.78;5056979;28;20542;-65
2021/06/08 05:15:52;;;;;;;26.48;12.95;;;;;;;15.62;88.01;96601.47;5074195;28;20040;-65
2021/06/08 05:18:22;;;;;;;23.67;12.32;;;;;;;15.59;88.20;96607.28;5056114;28;20032;-64
2021/06/08 05:20:48;;;;;;;24.27;13.25;;;;;;;15.60;88.24;96608.88;5073614;28;20036;-65
2021/06/08 05:23:16;;;;;;;25.88;12.95;;;;;;;15.70;88.70;96612.41;5074392;28;20045;-64
2021/06/08 05:25:43;;;;;;;22.60;12.63;;;;;;;15.78;87.86;96615.63;5073413;28;20061;-64
2021/06/08 05:28:13;;;;;;;21.35;11.55;;;;;;;15.88;87.39;96615.69;5074215;28;20068;-64
2021/06/08 05:30:38;;;;;;;22.83;12.48;;;;;;;15.87;87.01;96611.41;5073776;28;20542;-64
2021/06/08 05:33:08;;;;;;;20.20;11.77;;;;;;;16.24;86.24;96613.91;5074564;28;20036;-63
2021/06/08 05:35:34;;;;;;;19.15;11.25;;;;;;;16.24;86.08;96616.56;5073485;28;20064;-63
2021/06/08 05:38:04;;;;;;;22.95;11.95;;;;;;;16.20;86.17;96612.88;5073836;28;20037;-63
2021/06/08 05:40:29;;;;;;;21.70;11.93;;;;;;;16.21;86.36;96609.94;5073691;28;20049;-65
2021/06/08 05:42:57;;;;;;;20.90;12.82;;;;;;;16.22;86.27;96605.44;5073775;28;20055;-65
2021/06/08 05:45:23;;;;;;;19.23;11.57;;;;;;;16.65;85.00;96603.38;5073945;28;20492;-65
2021/06/08 05:47:49;;;;;;;19.73;11.20;;;;;;;16.58;85.13;96608.16;5056046;28;20411;-65
2021/06/08 05:50:17;;;;;;;19.35;11.60;;;;;;;16.60;85.00;96608.69;5055360;28;20036;-64
2021/06/08 05:52:43;;;;;;;;;;;;;;;16.56;85.06;96615.59;5073394;28;20465;-64
2021/06/08 05:55:10;;;;;;;21.38;11.65;;;;;;;16.56;85.73;96611.06;5073552;28;19973;-64
2021/06/08 05:57:36;;;;;;;21.13;12.00;;;;;;;16.73;85.24;96610.84;5073976;28;20120;-65
2021/06/08 06:00:04;;;;;;;25.52;11.35;;;;;;;16.75;84.98;96611.41;5078844;28;20071;-65
2021/06/08 06:02:33;;;;;;;17.90;10.68;;;;;;;17.20;84.09;96615.09;5074751;28;20040;-66
2021/06/08 06:04:59;;;;;;;19.00;11.02;;;;;;;17.32;82.37;96619.06;5073284;28;20037;-66
2021/06/08 06:07:27;;;;;;;18.23;10.75;;;;;;;17.58;81.96;96616.34;5073020;28;20059;-76
2021/06/08 06:09:53;;;;;;;18.90;11.48;;;;;;;17.69;81.47;96617.91;5073638;28;20044;-69
2021/06/08 06:12:36;;;;;;;16.92;10.48;;;;;;;17.67;81.35;96613.94;5026589;28;20057;-70
2021/06/08 06:15:05;;;;;;;19.20;11.07;;;;;;;17.54;82.26;96613.47;5073551;28;20041;-69
2021/06/08 06:17:34;;;;;;;19.10;11.05;;;;;;;17.25;82.72;96609.78;5073136;28;20063;-70
2021/06/08 06:20:02;;;;;;;18.98;11.20;;;;;;;17.42;82.80;96618.25;5072662;28;20036;-70
2021/06/08 06:22:30;;;;;;;18.55;10.82;;;;;;;17.45;82.08;96616.94;5072270;28;20051;-69
2021/06/08 06:24:56;;;;;;;18.00;11.07;;;;;;;17.72;80.98;96616.59;5054279;28;20044;-70
2021/06/08 06:27:21;;;;;;;19.05;10.80;;;;;;;17.56;81.45;96619.28;5073423;28;20040;-70
2021/06/08 06:29:50;;;;;;;19.58;10.85;;;;;;;17.38;81.94;96619.88;5073279;28;20585;-69
2021/06/08 06:32:19;;;;;;;18.85;11.45;;;;;;;17.33;82.14;96627.88;5072954;28;20044;-71
2021/06/08 06:34:45;;;;;;;18.70;11.52;;;;;;;17.63;81.41;96620.88;5073025;28;20106;-70
2021/06/08 06:37:13;;;;;;;19.10;12.25;;;;;;;17.43;82.18;96614.53;5073193;28;20492;-69
2021/06/08 06:39:45;;;;;;;18.88;11.57;;;;;;;17.29;82.54;96621.47;5073420;28;20427;-70
2021/06/08 06:42:13;;;;;;;22.48;12.73;;;;;;;17.20;82.71;96628.38;5055144;28;20047;-72
2021/06/08 06:44:40;;;;;;;21.30;11.93;;;;;;;17.48;82.13;96627.00;5074026;28;20450;-71
2021/06/08 06:47:09;;;;;;;21.50;12.05;;;;;;;17.51;82.15;96629.16;5056547;28;20717;-71
2021/06/08 06:49:35;;;;;;;20.10;11.10;;;;;;;17.47;81.61;96634.19;5075412;28;20163;-71
2021/06/08 06:52:04;;;;;;;21.08;12.38;;;;;;;17.70;81.61;96630.16;5073072;28;20535;-70
2021/06/08 06:54:30;;;;;;;20.52;12.40;;;;;;;17.95;80.26;96631.19;5074766;28;20112;-71
2021/06/08 06:56:58;;;;;;;19.50;11.85;;;;;;;17.92;80.28;96634.38;5073214;28;20105;-70
2021/06/08 06:59:25;;;;;;;20.20;12.48;;;;;;;17.99;80.39;96627.72;5073166;28;20094;-70
2021/06/08 07:01:51;;;;;;;20.00;12.98;;;;;;;18.36;78.40;96631.78;5056150;28;20095;-71
2021/06/08 07:04:17;;;;;;;21.73;12.35;;;;;;;18.59;77.84;96627.66;5074209;28;20064;-71
2021/06/08 07:06:45;;;;;;;19.65;11.65;;;;;;;19.08;76.55;96624.91;5073644;28;20546;-71
2021/06/08 07:09:11;;;;;;;18.15;11.52;;;;;;;18.79;76.76;96630.22;5079963;28;20037;-72
2021/06/08 07:11:38;;;;;;;20.42;12.65;;;;;;;18.98;77.04;96625.00;5087273;28;20049;-72
2021/06/08 07:14:05;;;;;;;20.23;11.93;;;;;;;19.00;76.78;96625.53;5080116;28;20047;-71
2021/06/08 07:16:31;;;;;;;19.35;11.60;;;;;;;19.14;76.31;96625.66;5074487;28;20052;-72
2021/06/08 07:18:57;;;;;;;21.63;14.02;;;;;;;19.32;76.99;96626.88;5072624;28;20102;-72
2021/06/08 07:21:24;;;;;;;19.15;11.90;;;;;;;19.27;75.66;96629.59;5072805;28;20048;-72
2021/06/08 07:23:53;;;;;;;20.40;12.15;;;;;;;19.62;75.93;96625.78;5072951;28;20541;-72
2021/06/08 07:26:18;;;;;;;22.88;11.90;;;;;;;19.63;74.24;96622.81;5073068;28;20051;-72
2021/06/08 07:28:46;;;;;;;19.13;12.23;;;;;;;19.81;73.85;96620.53;5072906;28;20044;-71
2021/06/08 07:31:25;;;;;;;18.45;11.02;;;;;;;20.31;73.68;96620.97;5073604;28;20036;-72
2021/06/08 07:33:58;;;;;;;19.15;12.30;;;;;;;20.39;71.58;96631.00;5072995;28;20075;-72
2021/06/08 07:36:28;;;;;;;19.45;12.07;;;;;;;20.79;70.85;96620.84;5072292;28;20045;-71
2021/06/08 07:39:00;;;;;;;19.65;11.63;;;;;;;21.33;69.18;96627.50;5073029;28;20407;-72
2021/06/08 07:41:33;;;;;;;16.88;10.95;;;;;;;21.25;68.16;96620.91;5072836;28;20037;-72
2021/06/08 07:44:03;;;;;;;19.15;11.48;;;;;;;21.66;67.11;96623.69;5056543;28;20055;-71
2021/06/08 07:46:32;;;;;;;16.95;11.15;;;;;;;22.30;65.71;96625.66;5056827;28;20078;-71
2021/06/08 07:48:59;;;;;;;18.75;11.60;;;;;;;22.69;65.14;96623.19;5073555;28;20047;-72
2021/06/08 07:51:27;;;;;;;18.85;11.30;;;;;;;22.96;63.03;96622.31;5077697;28;20529;-72
2021/06/08 07:53:53;;;;;;;;;;;;;;;23.64;60.49;96619.59;5077869;28;20033;-72
2021/06/08 07:56:19;;;;;;;27.08;11.48;;;;;;;24.16;58.45;96625.94;5059292;28;19923;-71
2021/06/08 07:58:45;;;;;;;16.73;10.55;;;;;;;24.65;58.04;96623.19;5077538;28;20054;-71
2021/06/08 08:01:14;;;;;;;18.60;12.25;;;;;;;24.17;57.78;96630.19;5076737;28;20066;-72
2021/06/08 08:03:41;;;;;;;22.63;12.70;;;;;;;24.34;58.96;96622.16;5076582;28;20040;-72
2021/06/08 08:06:08;;;;;;;;;;;;;;;24.32;58.24;96627.06;5077243;28;20041;-73
2021/06/08 08:08:37;;;;;;;19.42;12.32;;;;;;;24.35;57.23;96629.16;5076994;28;20054;-72
2021/06/08 08:11:06;;;;;;;18.33;12.52;;;;;;;24.53;58.15;96634.53;5077069;28;20128;-73
2021/06/08 08:13:33;;;;;;;18.27;13.60;;;;;;;24.29;57.09;96627.69;5077860;28;20124;-72
2021/06/08 08:16:03;;;;;;;21.10;14.32;;;;;;;23.94;58.10;96628.69;5078363;28;20118;-73
2021/06/08 08:18:31;;;;;;;18.95;13.65;;;;;;;23.77;58.28;96632.91;5078195;28;20037;-72
2021/06/08 08:20:58;;;;;;;20.80;15.30;;;;;;;23.86;58.47;96632.16;5060509;28;20134;-72
2021/06/08 08:23:27;;;;;;;21.42;13.90;;;;;;;24.34;58.02;96632.91;5077708;28;20051;-73
2021/06/08 08:25:53;;;;;;;20.08;13.10;;;;;;;24.06;58.64;96627.00;5059761;28;20044;-72
2021/06/08 08:28:19;;;;;;;21.15;14.32;;;;;;;23.97;59.03;96630.78;5077416;28;20067;-71
2021/06/08 08:30:45;;;;;;;19.67;13.63;;;;;;;24.00;59.34;96636.31;5076473;28;20063;-71
2021/06/08 08:33:11;;;;;;;20.45;14.45;;;;;;;23.22;60.25;96625.16;5077948;28;20075;-71
2021/06/08 08:35:38;;;;;;;21.40;15.57;;;;;;;23.23;60.68;96629.44;5076918;28;20119;-72
2021/06/08 08:38:06;;;;;;;22.65;15.82;;;;;;;23.49;60.18;96634.16;5076779;28;20052;-72
2021/06/08 08:40:33;;;;;;;22.55;15.45;;;;;;;23.59;59.28;96641.97;5077105;28;20040;-72
2021/06/08 08:43:01;;;;;;;19.50;14.02;;;;;;;23.37;60.36;96636.63;5077031;28;20037;-72
2021/06/08 08:45:28;;;;;;;23.00;14.98;;;;;;;22.90;60.75;96634.25;5076384;28;20500;-72
2021/06/08 08:47:55;;;;;;;20.83;16.17;;;;;;;22.81;60.88;96641.41;5076135;28;20040;-72
2021/06/08 08:50:21;;;;;;;22.40;15.60;;;;;;;23.06;61.62;96637.38;5075666;28;20112;-73
2021/06/08 08:52:57;;;;;;;19.77;14.43;;;;;;;23.19;59.84;96633.84;5076729;28;20423;-73
2021/06/08 08:55:25;;;;;;;20.75;14.88;;;;;;;23.40;60.04;96634.09;5076124;28;20041;-73
2021/06/08 08:57:54;;;;;;;22.20;16.13;;;;;;;23.60;59.14;96630.13;5057411;28;20051;-73
2021/06/08 09:00:22;;;;;;;22.10;15.40;;;;;;;23.62;59.56;96635.97;5074285;28;20083;-73
2021/06/08 09:02:48;;;;;;;20.25;15.57;;;;;;;24.05;58.61;96635.38;5076134;28;20041;-73
2021/06/08 09:05:14;;;;;;;23.43;15.77;;;;;;;24.39;57.22;96636.59;5076271;28;20558;-73
2021/06/08 09:07:41;;;;;;;22.25;15.85;;;;;;;24.20;57.71;96637.63;5057156;28;22015;-73
2021/06/08 09:10:09;;;;;;;22.10;16.00;;;;;;;24.08;58.41;96640.91;5076025;28;20123;-73
2021/06/08 09:12:36;;;;;;;21.23;15.35;;;;;;;24.17;58.69;96630.19;5075817;28;20132;-73
2021/06/08 09:15:03;;;;;;;20.40;16.17;;;;;;;24.16;57.85;96633.19;5075045;28;20140;-72
2021/06/08 09:17:30;;;;;;;23.03;16.13;;;;;;;23.83;58.26;96642.41;5057542;28;20060;-72
2021/06/08 09:19:56;;;;;;;24.83;16.33;;;;;;;23.71;59.06;96636.81;5074839;28;20041;-72
2021/06/08 09:22:21;;;;;;;22.52;16.90;;;;;;;23.68;59.79;96644.72;5074943;28;20037;-72
2021/06/08 09:24:54;;;;;;;23.10;17.23;;;;;;;23.37;60.00;96647.38;5075300;28;20045;-72
2021/06/08 09:27:28;;;;;;;22.65;16.73;;;;;;;23.27;58.61;96638.47;5075452;28;20068;-71
2021/06/08 09:29:55;;;;;;;22.10;16.75;;;;;;;23.09;61.52;96641.34;5075036;28;20124;-71
2021/06/08 09:32:25;;;;;;;20.23;15.70;;;;;;;23.12;61.65;96652.25;5075077;28;20040;-74
2021/06/08 09:34:53;;;;;;;23.63;19.10;;;;;;;23.05;60.11;96646.53;5074679;28;20064;-72
2021/06/08 09:37:36;;;;;;;23.63;17.52;;;;;;;22.95;62.41;96639.50;5075087;28;20048;-72
2021/06/08 09:40:16;;;;;;;24.88;16.52;;;;;;;22.92;61.61;96642.00;5056432;28;20040;-71
2021/06/08 09:42:43;;;;;;;20.30;15.35;;;;;;;22.78;61.99;96642.81;5055700;28;20036;-71
2021/06/08 09:45:16;;;;;;;19.70;14.90;;;;;;;22.97;61.51;96640.00;5056348;28;20040;-72
2021/06/08 09:47:43;;;;;;;20.75;15.38;;;;;;;22.92;60.95;96636.63;5074361;28;20064;-72
2021/06/08 09:50:32;;;;;;;21.85;15.85;;;;;;;23.11;61.69;96639.94;5056395;28;20506;-72
2021/06/08 09:53:17;;;;;;;21.73;16.73;;;;;;;22.93;59.69;96636.34;5056896;28;20389;-71
2021/06/08 09:55:57;;;;;;;22.35;16.30;;;;;;;23.11;59.05;96645.31;5057182;28;20040;-72
2021/06/08 09:58:25;;;;;;;21.20;16.13;;;;;;;23.39;59.74;96640.59;5075105;28;20032;-72
2021/06/08 10:01:16;;;;;;;24.23;16.80;;;;;;;23.57;57.93;96644.19;5056060;28;20048;-71
2021/06/08 10:03:44;;;;;;;30.02;21.48;;;;;;;23.92;58.17;96641.66;5075502;28;20119;-73
2021/06/08 10:06:12;;;;;;;32.83;23.27;;;;;;;24.17;56.90;96638.25;5074973;28;20040;-72
2021/06/08 10:08:40;;;;;;;;;;;;;;;24.46;55.19;96640.41;5055716;28;20514;-72
2021/06/08 10:11:15;;;;;;;21.77;15.43;;;;;;;24.86;52.39;96633.00;5073656;28;20015;-71
2021/06/08 10:13:41;;;;;;;20.13;15.57;;;;;;;25.50;52.52;96639.56;5055058;28;20045;-73
2021/06/08 10:16:08;;;;;;;21.00;15.68;;;;;;;25.73;51.14;96638.25;5073947;28;20044;-73
2021/06/08 10:18:49;;;;;;;24.23;18.10;;;;;;;25.99;50.25;96642.75;5074865;28;20040;-73
2021/06/08 10:21:17;;;;;;;22.25;15.73;;;;;;;25.45;50.82;96637.03;5073998;28;20119;-72
2021/06/08 10:23:43;;;;;;;21.40;16.05;;;;;;;25.39;51.98;96631.81;5055721;28;20112;-73
2021/06/08 10:26:11;;;;;;;19.80;15.00;;;;;;;25.71;50.96;96639.66;5073972;28;20326;-73
2021/06/08 10:28:37;;;;;;;22.08;15.60;;;;;;;25.22;49.65;96633.78;5074421;28;20041;-71
2021/06/08 10:31:04;;;;;;;19.75;15.00;;;;;;;24.82;51.34;96637.41;5073891;28;20040;-72
2021/06/08 10:33:31;;;;;;;21.35;15.25;;;;;;;24.64;51.64;96635.81;5057171;28;20512;-73
2021/06/08 10:35:59;;;;;;;21.15;14.25;;;;;;;24.98;51.68;96635.03;5074340;28;20052;-73
2021/06/08 10:38:25;;;;;;;20.45;15.45;;;;;;;24.19;52.82;96630.66;5074023;28;20044;-72
2021/06/08 10:40:54;;;;;;;21.77;15.82;;;;;;;23.97;53.41;96628.09;5056195;28;20049;-71
2021/06/08 10:43:25;;;;;;;18.33;14.57;;;;;;;24.36;53.68;96629.94;5074082;28;20450;-72
2021/06/08 10:45:55;;;;;;;19.70;14.45;;;;;;;24.01;54.31;96626.38;5073911;28;20040;-72
2021/06/08 10:48:27;;;;;;;20.60;14.85;;;;;;;24.37;54.00;96625.34;5081002;28;20060;-73
2021/06/08 10:51:09;;;;;;;20.25;15.82;;;;;;;24.34;53.05;96627.53;5083986;28;20058;-70
2021/06/08 10:53:37;;;;;;;20.40;14.93;;;;;;;24.65;52.21;96625.88;5080741;28;20044;-72
2021/06/08 10:56:18;;;;;;;19.58;14.50;;;;;;;24.49;52.39;96620.16;5057814;28;20067;-72
2021/06/08 10:58:50;;;;;;;21.73;16.27;;;;;;;24.46;52.15;96618.09;5076374;28;20067;-71
2021/06/08 11:01:44;;;;;;;20.02;15.00;;;;;;;24.48;51.52;96623.94;5077826;28;20046;-73
2021/06/08 11:04:15;;;;;;;19.58;14.80;;;;;;;24.24;52.37;96627.03;5074662;28;20036;-72
2021/06/08 11:06:49;;;;;;;20.63;15.43;;;;;;;24.29;52.64;96625.00;5074184;28;20040;-73
2021/06/08 11:09:16;;;;;;;19.77;14.85;;;;;;;24.42;52.61;96627.88;5074826;28;20044;-72
2021/06/08 11:11:50;;;;;;;18.90;14.07;;;;;;;24.44;51.51;96625.69;5074803;28;20041;-73
2021/06/08 11:14:59;;;;;;;20.23;13.63;;;;;;;24.49;50.80;96628.22;5074550;28;20117;-73
2021/06/08 11:17:40;;;;;;;17.75;13.25;;;;;;;24.54;51.09;96631.56;5073839;28;20495;-72
2021/06/08 11:20:19;;;;;;;18.55;13.93;;;;;;;24.95;50.03;96624.13;5056480;28;20044;-72
2021/06/08 11:22:54;;;;;;;18.20;13.52;;;;;;;25.47;48.35;96624.06;5075498;28;20430;-71
2021/06/08 11:25:44;;;;;;;17.83;13.43;;;;;;;25.76;47.13;96616.06;5078557;28;20040;-73
2021/06/08 11:28:13;;;;;;;18.05;13.40;;;;;;;25.58;48.92;96619.91;5078497;28;20503;-72